Grovetown, Georgia
Current Conditions -  °F | °C
As of 9:53 PM on Friday 21 Nov 2014 (Local Time) from KDNL Reporting Station
Clear Clear  
Wind Chill: 52°   Ceiling: Unl
Heat Index: 52°   Visibility: 10mi
Dew Point: 27°   Wind: 8mph
Humidity: 38%   Direction: 80°E
Pressure: 30.44"   Gusts: NA
Location:  33.45°N, 82.2°W
Report Text: KDNL 220253Z AUTO 08007KT 10SM CLR 11/M03 A3044 RMK AO2 SLP307 T01111028 53014
Loading
Personal Weather Stations






























Interactive Weather Map New forecast layout! Learn more

10-Day Weather Forecast

Advertisements
Track Severe Weather on mobile